Language selection

Weather shortcuts

West Coast Haida Gwaii - southern half: Past 24 Hour Conditions

 

North Nomad - 46184

05:00 PM PDT 14 April 2026Buoy position: 53.9N 138.85W
Disclaimer

This table is a summary of hourly weather conditions for the past 24 hours.
Please note that these observations might not always be representative of weather conditions over their associated marine area.

Date / Time
(PDT)
Wind(knots) Wave height(m) Wave period(s) Pressure(kPa) Air tempC) Water tempC)
14 April 2026
17:00 NNW 18 gusts 21 2.46 8.7 101.1 6 6
16:00 N 18 gusts 22 2.63 9.5 101.0 6 6
15:00 NNW 17 gusts 22 2.57 10.0 100.9 5 6
14:00 NNW 19 gusts 23 2.96 10.0 100.7 5 6
13:00 NW 20 gusts 26 3.26 10.0 100.7 5 6
12:00 NW 22 gusts 31 3.01 10.0 100.6 4 6
11:00 NW 20 gusts 25 3.12 10.0 100.5 5 6
10:00 NW 23 gusts 30 3.01 10.0 100.5 5 6
9:00 NW 22 gusts 29 3.18 10.0 100.4 5 6
8:00 WNW 22 gusts 27 2.66 9.1 100.4 5 6
7:00 NW 18 gusts 24 2.95 10.0 100.4 4 6
6:00 WNW 21 gusts 26 2.78 10.0 100.4 5 6
5:00 WNW 21 gusts 26 2.66 11.1 100.3 5 6
4:00 W 18 gusts 22 2.60 10.5 100.4 4 6
3:00 W 20 gusts 28 2.53 9.5 100.4 4 6
2:00 WNW 19 gusts 24 2.88 10.5 100.4 4 6
1:00 W 15 gusts 19 2.81 11.1 100.4 3 6
0:00 WNW 19 gusts 26 3.19 11.1 100.4 3 6
13 April 2026
23:00 WNW 20 gusts 26 3.48 10.0 100.4 3 6
22:00 WNW 20 gusts 25 3.26 11.1 100.4 4 6
21:00 W 19 gusts 24 3.13 10.5 100.4 4 6
20:00 WNW 18 gusts 25 3.10 10.5 100.4 4 6
19:00 WNW 19 gusts 24 3.10 10.5 100.5 4 6
18:00 WNW 21 gusts 26 3.32 10.0 100.5 4 6
17:00 W 24 gusts 34 3.14 10.5 100.5 2 6

Zoom-in to make a selection

Map of Pacific - North Coast marine weather areas Masset Municipal Airport South Moresby - 46147 Bonilla Island Bella Coola Airport North Hecate Strait - 46183 Bella Bella Airport North Nomad - 46184 Sandspit Airport South Hecate Strait - 46185 Rose Spit Nanakwa Shoal - 46181 Langara Island Kindakun Rocks West Sea Otter - 46204 Cape St.James West Dixon Entrance - 46205 Sartine Island West Moresby - 46208 East Dellwood - 46207 Middle Nomad - 46004 South Nomad - 46036 Cathedral Point Prince Rupert Airport Lucy Islands Lightstation Holland Rock Dixon Entrance Central - 46145 Grey Islet Cumshewa Island
Legend:
buoy Buoy
land station Land Station

Pacific - North Coast Area

Another Region

Features

Colour-coded weather alerts

Learn more about weather alerting in Canada

Date modified: